Time;durP1;ratioP1;P1;durP2;ratioP2;P2;SDS_P1;SDS_P2;PMS_P1;PMS_P2;Temp;Humidity;BMP_temperature;BMP_pressure;BME280_temperature;BME280_humidity;BME280_pressure;Samples;Min_cycle;Max_cycle;Signal;HPM_P1;HPM_P2
2024/03/03 00:00:48;;;;;;;29.77;21.00;;;;;;;;;;5053370;28;20024;-56
2024/03/03 00:03:14;;;;;;;25.88;19.75;;;;;;;;;;5054373;28;20036;-56
2024/03/03 00:05:40;;;;;;;28.88;21.23;;;;;;;;;;5054368;28;20032;-57
2024/03/03 00:08:06;;;;;;;32.67;20.58;;;;;;;;;;5054158;28;20367;-56
2024/03/03 00:10:32;;;;;;;28.50;21.73;;;;;;;;;;5053309;28;20049;-55
2024/03/03 00:12:58;;;;;;;28.65;22.17;;;;;;;;;;5053519;28;20067;-57
2024/03/03 00:15:24;;;;;;;28.23;22.17;;;;;;;;;;5053524;28;20025;-57
2024/03/03 00:17:50;;;;;;;28.33;22.17;;;;;;;;;;5053746;28;20033;-56
2024/03/03 00:20:16;;;;;;;36.08;22.73;;;;;;;;;;5053461;28;20496;-58
2024/03/03 00:22:42;;;;;;;31.45;23.02;;;;;;;;;;5053079;28;20029;-57
2024/03/03 00:25:08;;;;;;;31.00;22.15;;;;;;;;;;5053809;28;20064;-58
2024/03/03 00:27:34;;;;;;;29.13;23.55;;;;;;;;;;5053418;28;20111;-57
2024/03/03 00:30:00;;;;;;;28.95;24.23;;;;;;;;;;5053829;28;20557;-57
2024/03/03 00:32:27;;;;;;;29.45;22.08;;;;;;;;;;5053934;28;20063;-57
2024/03/03 00:34:53;;;;;;;29.90;22.33;;;;;;;;;;5053378;28;20033;-57
2024/03/03 00:37:22;;;;;;;29.75;22.88;;;;;;;;;;5053642;28;20374;-57
2024/03/03 00:39:48;;;;;;;28.38;21.65;;;;;;;;;;5053577;28;20025;-57
2024/03/03 00:42:14;;;;;;;34.15;24.80;;;;;;;;;;5053746;28;20035;-56
2024/03/03 00:44:39;;;;;;;29.73;22.10;;;;;;;;;;5053272;28;20032;-57
2024/03/03 00:47:05;;;;;;;31.02;22.65;;;;;;;;;;5053231;28;20017;-57
2024/03/03 00:49:31;;;;;;;23.88;20.27;;;;;;;;;;5053799;28;20025;-57
2024/03/03 00:51:59;;;;;;;27.35;20.42;;;;;;;;;;5053711;28;20448;-57
2024/03/03 00:54:25;;;;;;;28.33;22.02;;;;;;;;;;5053205;28;20025;-56
2024/03/03 00:56:51;;;;;;;28.55;22.25;;;;;;;;;;5053194;28;20057;-57
2024/03/03 00:59:17;;;;;;;28.92;20.35;;;;;;;;;;5053100;28;20017;-57
2024/03/03 01:01:43;;;;;;;28.75;21.85;;;;;;;;;;5053068;28;20025;-57
2024/03/03 01:04:09;;;;;;;28.65;21.35;;;;;;;;;;5053178;28;20025;-57
2024/03/03 01:06:34;;;;;;;23.83;21.25;;;;;;;;;;5053090;28;20029;-57
2024/03/03 01:09:01;;;;;;;31.33;23.65;;;;;;;;;;5053614;28;20041;-58
2024/03/03 01:11:26;;;;;;;29.35;21.60;;;;;;;;;;5053263;28;20029;-56
2024/03/03 01:13:53;;;;;;;30.08;22.52;;;;;;;;;;5057447;28;20415;-57
2024/03/03 01:16:20;;;;;;;23.40;20.23;;;;;;;;;;5056617;28;20024;-58
2024/03/03 01:18:46;;;;;;;28.08;21.83;;;;;;;;;;5057127;28;20036;-57
2024/03/03 01:21:11;;;;;;;27.33;21.50;;;;;;;;;;5056552;28;20029;-58
2024/03/03 01:23:37;;;;;;;25.42;20.98;;;;;;;;;;5056652;28;20029;-57
2024/03/03 01:26:03;;;;;;;31.58;22.83;;;;;;;;;;5056495;28;20489;-58
2024/03/03 01:28:29;;;;;;;24.38;21.35;;;;;;;;;;5056719;28;20456;-57
2024/03/03 01:30:55;;;;;;;30.45;20.67;;;;;;;;;;5056393;28;20081;-56
2024/03/03 01:33:21;;;;;;;27.33;22.52;;;;;;;;;;5056752;28;20029;-57
2024/03/03 01:35:48;;;;;;;30.48;22.33;;;;;;;;;;5055995;28;20032;-56
2024/03/03 01:38:14;;;;;;;24.33;20.20;;;;;;;;;;5056829;28;20025;-58
2024/03/03 01:40:40;;;;;;;26.80;21.63;;;;;;;;;;5056119;28;20024;-57
2024/03/03 01:43:07;;;;;;;27.15;19.42;;;;;;;;;;5056080;28;20102;-56
2024/03/03 01:45:33;;;;;;;26.27;20.75;;;;;;;;;;5056326;28;20048;-57
2024/03/03 01:47:59;;;;;;;27.30;19.85;;;;;;;;;;5056663;28;20029;-55
2024/03/03 01:50:25;;;;;;;26.23;21.27;;;;;;;;;;5056471;28;20032;-57
2024/03/03 01:52:52;;;;;;;26.20;19.77;;;;;;;;;;5056579;28;20112;-57
2024/03/03 01:55:19;;;;;;;25.50;19.33;;;;;;;;;;5056436;28;20025;-57
2024/03/03 01:57:46;;;;;;;23.02;19.90;;;;;;;;;;5055917;28;20072;-57
2024/03/03 02:00:13;;;;;;;24.88;19.88;;;;;;;;;;5056347;28;20082;-57
2024/03/03 02:02:40;;;;;;;25.85;20.48;;;;;;;;;;5056230;28;20418;-55
2024/03/03 02:05:06;;;;;;;26.40;19.23;;;;;;;;;;5056250;28;20074;-56
2024/03/03 02:07:32;;;;;;;24.33;19.25;;;;;;;;;;5056190;28;20044;-56
2024/03/03 02:09:59;;;;;;;27.23;20.55;;;;;;;;;;5056458;28;20025;-56
2024/03/03 02:12:25;;;;;;;25.45;20.70;;;;;;;;;;5055931;28;20032;-57
2024/03/03 02:14:52;;;;;;;27.13;20.08;;;;;;;;;;5056013;28;20025;-54
2024/03/03 02:17:18;;;;;;;31.20;21.52;;;;;;;;;;5056009;28;20490;-55
2024/03/03 02:19:44;;;;;;;26.58;20.45;;;;;;;;;;5055155;28;20429;-54
2024/03/03 02:22:10;;;;;;;23.77;18.13;;;;;;;;;;5055761;28;20128;-56
2024/03/03 02:24:36;;;;;;;23.48;17.70;;;;;;;;;;5055115;28;20036;-57
2024/03/03 02:27:04;;;;;;;30.20;20.55;;;;;;;;;;5055770;28;20025;-59
2024/03/03 02:29:30;;;;;;;30.70;22.08;;;;;;;;;;5055216;28;20032;-57
2024/03/03 02:31:56;;;;;;;29.08;21.52;;;;;;;;;;5055191;28;20124;-57
2024/03/03 02:34:22;;;;;;;24.33;21.20;;;;;;;;;;5055215;28;20065;-56
2024/03/03 02:36:48;;;;;;;27.10;23.00;;;;;;;;;;5055170;28;20048;-57
2024/03/03 02:39:15;;;;;;;29.20;22.50;;;;;;;;;;5055380;28;20053;-57
2024/03/03 02:41:41;;;;;;;26.60;22.17;;;;;;;;;;5054777;28;20529;-56
2024/03/03 02:44:07;;;;;;;27.67;22.13;;;;;;;;;;5055415;28;20040;-56
2024/03/03 02:46:33;;;;;;;36.47;23.23;;;;;;;;;;5055270;28;20082;-57
2024/03/03 02:48:59;;;;;;;31.88;25.85;;;;;;;;;;5054969;28;20029;-55
2024/03/03 02:51:26;;;;;;;35.13;23.58;;;;;;;;;;5055400;28;20036;-57
2024/03/03 02:53:52;;;;;;;36.28;24.60;;;;;;;;;;5055083;28;20033;-57
2024/03/03 02:56:18;;;;;;;30.90;24.48;;;;;;;;;;5055162;28;20144;-57
2024/03/03 02:58:44;;;;;;;29.83;23.13;;;;;;;;;;5055238;28;20033;-57
2024/03/03 03:01:10;;;;;;;31.50;25.02;;;;;;;;;;5054607;28;20054;-57
2024/03/03 03:03:36;;;;;;;34.92;26.33;;;;;;;;;;5054901;28;20029;-56
2024/03/03 03:06:03;;;;;;;32.03;24.80;;;;;;;;;;5054538;28;20116;-57
2024/03/03 03:08:29;;;;;;;38.25;23.20;;;;;;;;;;5054467;28;20481;-56
2024/03/03 03:10:55;;;;;;;32.47;25.85;;;;;;;;;;5054168;28;20017;-57
2024/03/03 03:13:21;;;;;;;28.00;22.17;;;;;;;;;;5054295;28;20029;-56
2024/03/03 03:15:47;;;;;;;26.58;22.27;;;;;;;;;;5054083;28;20029;-55
2024/03/03 03:18:13;;;;;;;28.38;22.17;;;;;;;;;;5054666;28;20091;-56
2024/03/03 03:20:39;;;;;;;31.67;23.98;;;;;;;;;;5054832;28;20029;-57
2024/03/03 03:23:05;;;;;;;31.92;23.45;;;;;;;;;;5055019;28;20025;-57
2024/03/03 03:25:31;;;;;;;30.98;22.58;;;;;;;;;;5055005;28;20395;-57
2024/03/03 03:27:57;;;;;;;29.98;22.20;;;;;;;;;;5054412;28;20021;-57
2024/03/03 03:30:23;;;;;;;27.50;21.55;;;;;;;;;;5054870;28;20112;-57
2024/03/03 03:32:49;;;;;;;30.23;21.00;;;;;;;;;;5054854;28;20031;-57
2024/03/03 03:35:15;;;;;;;28.02;21.35;;;;;;;;;;5053439;28;20025;-56
2024/03/03 03:37:41;;;;;;;33.67;23.02;;;;;;;;;;5054297;28;20021;-57
2024/03/03 03:40:09;;;;;;;26.80;21.83;;;;;;;;;;5054092;28;20025;-55
2024/03/03 03:42:35;;;;;;;32.58;20.95;;;;;;;;;;5054315;28;20033;-57
2024/03/03 03:45:03;;;;;;;26.52;21.58;;;;;;;;;;5054230;28;20379;-57
2024/03/03 03:47:29;;;;;;;29.88;22.20;;;;;;;;;;5054193;28;20017;-56
2024/03/03 03:49:55;;;;;;;26.30;21.88;;;;;;;;;;5054405;28;20031;-54
2024/03/03 03:52:21;;;;;;;30.80;21.15;;;;;;;;;;5054678;28;20029;-56
2024/03/03 03:54:47;;;;;;;29.98;22.48;;;;;;;;;;5053524;28;20356;-57
2024/03/03 03:57:13;;;;;;;29.63;22.67;;;;;;;;;;5053693;28;20041;-55
2024/03/03 03:59:39;;;;;;;25.67;21.05;;;;;;;;;;5053381;28;20078;-57
2024/03/03 04:02:05;;;;;;;27.90;22.15;;;;;;;;;;5054195;28;20025;-57
2024/03/03 04:04:34;;;;;;;29.23;22.45;;;;;;;;;;5053618;28;20029;-57
2024/03/03 04:07:01;;;;;;;26.90;20.10;;;;;;;;;;5053858;28;20028;-57
2024/03/03 04:09:27;;;;;;;30.95;21.13;;;;;;;;;;5053620;28;20464;-56
2024/03/03 04:11:53;;;;;;;30.17;21.95;;;;;;;;;;5053571;28;20028;-58
2024/03/03 04:14:19;;;;;;;29.55;19.85;;;;;;;;;;5053522;28;20025;-57
2024/03/03 04:16:45;;;;;;;26.95;20.05;;;;;;;;;;5053278;28;20033;-58
2024/03/03 04:19:11;;;;;;;31.63;21.95;;;;;;;;;;5054135;28;20029;-58
2024/03/03 04:21:41;;;;;;;29.00;20.48;;;;;;;;;;5054367;28;20032;-58
2024/03/03 04:24:07;;;;;;;33.33;22.45;;;;;;;;;;5053149;28;20467;-57
2024/03/03 04:26:33;;;;;;;29.40;21.98;;;;;;;;;;5053471;28;20171;-58
2024/03/03 04:29:00;;;;;;;29.85;22.98;;;;;;;;;;5053429;28;20025;-57
2024/03/03 04:31:26;;;;;;;28.35;21.10;;;;;;;;;;5054159;28;20032;-58
2024/03/03 04:33:52;;;;;;;30.33;22.60;;;;;;;;;;5053413;28;20029;-58
2024/03/03 04:36:18;;;;;;;34.67;23.65;;;;;;;;;;5053352;28;20036;-56
2024/03/03 04:38:44;;;;;;;31.20;22.20;;;;;;;;;;5053958;28;20157;-56
2024/03/03 04:41:18;;;;;;;37.28;23.88;;;;;;;;;;5053361;28;20033;-55
2024/03/03 04:43:45;;;;;;;30.55;22.80;;;;;;;;;;5053789;28;20354;-57
2024/03/03 04:46:11;;;;;;;31.63;21.38;;;;;;;;;;5053305;28;20116;-55
2024/03/03 04:48:37;;;;;;;29.20;21.75;;;;;;;;;;5057583;28;20581;-54
2024/03/03 04:51:04;;;;;;;29.45;20.88;;;;;;;;;;5056846;28;20497;-56
2024/03/03 04:53:30;;;;;;;29.98;23.05;;;;;;;;;;5056807;28;20037;-55
2024/03/03 04:55:55;;;;;;;33.25;22.42;;;;;;;;;;5056860;28;20033;-55
2024/03/03 04:58:21;;;;;;;29.70;22.33;;;;;;;;;;5057524;28;20122;-57
2024/03/03 05:00:47;;;;;;;31.70;21.63;;;;;;;;;;5057442;28;20017;-58
2024/03/03 05:03:13;;;;;;;27.00;20.67;;;;;;;;;;5056550;28;20029;-58
2024/03/03 05:05:39;;;;;;;31.23;21.75;;;;;;;;;;5056873;28;20033;-58
2024/03/03 05:08:05;;;;;;;28.45;20.63;;;;;;;;;;5057060;28;20348;-57
2024/03/03 05:10:31;;;;;;;30.50;21.85;;;;;;;;;;5057295;28;20033;-57
2024/03/03 05:12:57;;;;;;;34.20;21.45;;;;;;;;;;5056944;28;20352;-58
2024/03/03 05:15:23;;;;;;;30.90;20.60;;;;;;;;;;5056281;28;20067;-57
2024/03/03 05:17:49;;;;;;;25.65;21.15;;;;;;;;;;5056511;28;20143;-56
2024/03/03 05:20:15;;;;;;;29.80;22.42;;;;;;;;;;5056649;28;20418;-57
2024/03/03 05:22:42;;;;;;;35.25;23.30;;;;;;;;;;5056967;28;20025;-56
2024/03/03 05:25:10;;;;;;;28.77;21.27;;;;;;;;;;5056997;28;20425;-57
2024/03/03 05:27:36;;;;;;;25.60;19.35;;;;;;;;;;5056824;28;20063;-58
2024/03/03 05:30:02;;;;;;;32.35;22.35;;;;;;;;;;5056902;28;20083;-56
2024/03/03 05:32:28;;;;;;;35.53;23.08;;;;;;;;;;5056583;28;20037;-58
2024/03/03 05:34:54;;;;;;;34.88;22.45;;;;;;;;;;5056281;28;20442;-58
2024/03/03 05:37:20;;;;;;;25.15;20.38;;;;;;;;;;5056737;28;20056;-56
2024/03/03 05:39:46;;;;;;;32.00;19.98;;;;;;;;;;5056156;28;20028;-57
2024/03/03 05:42:12;;;;;;;34.17;22.40;;;;;;;;;;5056225;28;20056;-57
2024/03/03 05:44:38;;;;;;;30.10;21.25;;;;;;;;;;5056611;28;20052;-58
2024/03/03 05:47:05;;;;;;;29.25;20.83;;;;;;;;;;5056010;28;20025;-58
2024/03/03 05:49:33;;;;;;;31.38;21.85;;;;;;;;;;5056872;28;20028;-56
2024/03/03 05:52:00;;;;;;;28.20;20.88;;;;;;;;;;5055611;28;20487;-57
2024/03/03 05:54:26;;;;;;;28.40;22.10;;;;;;;;;;5055946;28;20383;-56
2024/03/03 05:56:52;;;;;;;28.95;19.60;;;;;;;;;;5056028;28;20049;-57
2024/03/03 05:59:18;;;;;;;34.30;22.73;;;;;;;;;;5055276;28;20025;-57
2024/03/03 06:01:50;;;;;;;29.73;20.88;;;;;;;;;;5055469;28;20052;-58
2024/03/03 06:04:16;;;;;;;29.80;21.60;;;;;;;;;;5055903;28;20112;-56
2024/03/03 06:06:43;;;;;;;28.92;21.25;;;;;;;;;;5055790;28;20025;-57
2024/03/03 06:09:10;;;;;;;27.02;19.40;;;;;;;;;;5056311;28;20075;-55
2024/03/03 06:11:37;;;;;;;28.17;19.95;;;;;;;;;;5055610;28;20490;-57
2024/03/03 06:14:03;;;;;;;33.08;21.42;;;;;;;;;;5055609;28;20029;-57
2024/03/03 06:16:29;;;;;;;27.73;19.67;;;;;;;;;;5055493;28;20032;-57
2024/03/03 06:18:55;;;;;;;31.58;19.75;;;;;;;;;;5056132;28;20025;-56
2024/03/03 06:21:21;;;;;;;29.00;21.15;;;;;;;;;;5055510;28;20074;-57
2024/03/03 06:23:47;;;;;;;24.63;19.88;;;;;;;;;;5055413;28;20059;-58
2024/03/03 06:26:16;;;;;;;27.40;20.45;;;;;;;;;;5055093;28;20061;-58
2024/03/03 06:28:44;;;;;;;29.75;20.23;;;;;;;;;;5055502;28;20029;-58
2024/03/03 06:31:10;;;;;;;30.67;20.95;;;;;;;;;;5054954;28;20111;-56
2024/03/03 06:33:37;;;;;;;32.70;20.80;;;;;;;;;;5055195;28;20021;-57
2024/03/03 06:36:03;;;;;;;28.85;20.38;;;;;;;;;;5055210;28;20025;-58
2024/03/03 06:38:29;;;;;;;30.95;20.77;;;;;;;;;;5055980;28;20408;-59
2024/03/03 06:40:55;;;;;;;28.75;21.52;;;;;;;;;;5055252;28;20036;-58
2024/03/03 06:43:20;;;;;;;26.77;21.55;;;;;;;;;;5055522;28;20127;-58
2024/03/03 06:45:47;;;;;;;29.90;21.92;;;;;;;;;;5054934;28;20074;-58
2024/03/03 06:48:13;;;;;;;32.08;20.63;;;;;;;;;;5054991;28;20494;-58
2024/03/03 06:50:39;;;;;;;30.13;21.83;;;;;;;;;;5054915;28;20096;-58
2024/03/03 06:53:05;;;;;;;24.58;19.33;;;;;;;;;;5054820;28;20024;-58
2024/03/03 06:55:31;;;;;;;34.33;24.15;;;;;;;;;;5054639;28;20021;-58
2024/03/03 06:57:57;;;;;;;30.05;21.17;;;;;;;;;;5055156;28;20059;-58
2024/03/03 07:00:23;;;;;;;31.33;22.05;;;;;;;;;;5054621;28;20053;-58
2024/03/03 07:05:58;;;;;;;28.23;21.10;;;;;;;;;;5047272;28;20114;-58
2024/03/03 07:08:24;;;;;;;27.95;19.85;;;;;;;;;;5054446;28;20017;-58
2024/03/03 07:10:50;;;;;;;31.08;22.27;;;;;;;;;;5053557;28;20112;-58
2024/03/03 07:13:16;;;;;;;24.13;20.92;;;;;;;;;;5054756;28;20036;-58
2024/03/03 07:15:42;;;;;;;33.60;21.80;;;;;;;;;;5054291;28;20021;-58
2024/03/03 07:18:08;;;;;;;30.25;20.38;;;;;;;;;;5055215;28;20029;-58
2024/03/03 07:20:34;;;;;;;22.60;20.17;;;;;;;;;;5054407;28;20052;-58
2024/03/03 07:23:00;;;;;;;23.75;19.42;;;;;;;;;;5054215;28;20025;-58
2024/03/03 07:25:26;;;;;;;25.73;19.75;;;;;;;;;;5054843;28;20415;-56
2024/03/03 07:27:52;;;;;;;22.83;18.67;;;;;;;;;;5054703;28;20025;-58
2024/03/03 07:30:18;;;;;;;24.23;18.50;;;;;;;;;;5054394;28;20447;-57
2024/03/03 07:32:44;;;;;;;23.38;19.58;;;;;;;;;;5054052;28;20447;-55
2024/03/03 07:35:10;;;;;;;25.20;19.15;;;;;;;;;;5054001;28;20029;-58
2024/03/03 07:37:36;;;;;;;25.42;17.60;;;;;;;;;;5054050;28;20151;-58
2024/03/03 07:40:02;;;;;;;23.38;18.27;;;;;;;;;;5054564;28;20110;-58
2024/03/03 07:42:28;;;;;;;19.80;17.13;;;;;;;;;;5054271;28;20463;-58
2024/03/03 07:44:54;;;;;;;19.83;17.05;;;;;;;;;;5052680;28;20025;-56
2024/03/03 07:47:20;;;;;;;19.40;16.67;;;;;;;;;;5053897;28;20131;-58
2024/03/03 07:49:45;;;;;;;19.35;15.57;;;;;;;;;;5053756;28;20032;-58
2024/03/03 07:52:11;;;;;;;19.88;15.63;;;;;;;;;;5053532;28;20092;-57
2024/03/03 07:54:37;;;;;;;20.15;16.75;;;;;;;;;;5054107;28;20057;-58
2024/03/03 07:57:04;;;;;;;21.08;16.58;;;;;;;;;;5053857;28;20076;-57
2024/03/03 07:59:30;;;;;;;19.63;15.48;;;;;;;;;;5053764;28;20028;-58
2024/03/03 08:01:56;;;;;;;16.77;14.30;;;;;;;;;;5053252;28;20386;-58
2024/03/03 08:04:22;;;;;;;19.48;15.93;;;;;;;;;;5053405;28;20116;-58
2024/03/03 08:06:48;;;;;;;18.63;14.45;;;;;;;;;;5054384;28;20036;-58
2024/03/03 08:09:14;;;;;;;20.55;14.68;;;;;;;;;;5054054;28;20025;-58
2024/03/03 08:11:40;;;;;;;20.92;15.43;;;;;;;;;;5053579;28;20104;-57
2024/03/03 08:14:07;;;;;;;18.15;15.63;;;;;;;;;;5054166;28;20402;-57
2024/03/03 08:16:34;;;;;;;15.82;14.13;;;;;;;;;;5054087;28;20033;-55
2024/03/03 08:19:00;;;;;;;18.77;14.30;;;;;;;;;;5053904;28;20040;-58
2024/03/03 08:21:26;;;;;;;20.13;14.68;;;;;;;;;;5055139;28;20025;-58
2024/03/03 08:23:51;;;;;;;18.35;14.73;;;;;;;;;;5057527;28;20086;-58
2024/03/03 08:26:21;;;;;;;16.38;13.93;;;;;;;;;;5057576;28;20029;-57
2024/03/03 08:28:47;;;;;;;18.98;14.93;;;;;;;;;;5057652;28;20029;-54
2024/03/03 08:31:13;;;;;;;19.60;13.45;;;;;;;;;;5057739;28;20029;-57
2024/03/03 08:33:39;;;;;;;15.55;13.40;;;;;;;;;;5057252;28;20033;-56
2024/03/03 08:36:05;;;;;;;16.05;12.43;;;;;;;;;;5057230;28;20477;-56
2024/03/03 08:38:31;;;;;;;17.58;14.82;;;;;;;;;;5057497;28;20101;-57
2024/03/03 08:40:57;;;;;;;14.75;12.85;;;;;;;;;;5057111;28;20049;-58
2024/03/03 08:43:23;;;;;;;14.98;13.07;;;;;;;;;;5056732;28;20056;-58
2024/03/03 08:45:49;;;;;;;15.93;12.45;;;;;;;;;;5057212;28;20367;-58
2024/03/03 08:48:15;;;;;;;13.07;11.48;;;;;;;;;;5058005;28;20032;-57
2024/03/03 08:50:41;;;;;;;18.70;13.82;;;;;;;;;;5057405;28;20516;-55
2024/03/03 08:53:07;;;;;;;20.23;14.90;;;;;;;;;;5057051;28;20033;-57
2024/03/03 08:55:33;;;;;;;16.92;13.95;;;;;;;;;;5057809;28;20029;-57
2024/03/03 08:57:59;;;;;;;17.95;15.23;;;;;;;;;;5058004;28;20049;-57
2024/03/03 09:00:25;;;;;;;16.30;14.02;;;;;;;;;;5057452;28;20168;-56
2024/03/03 09:02:51;;;;;;;21.27;15.18;;;;;;;;;;5056874;28;20150;-58
2024/03/03 09:05:17;;;;;;;15.93;14.15;;;;;;;;;;5056839;28;20453;-57
2024/03/03 09:07:43;;;;;;;17.05;14.25;;;;;;;;;;5057556;28;20122;-57
2024/03/03 09:10:09;;;;;;;17.58;14.55;;;;;;;;;;5057390;28;20032;-58
2024/03/03 09:12:35;;;;;;;15.50;13.57;;;;;;;;;;5056706;28;20053;-57
2024/03/03 09:15:01;;;;;;;17.20;12.88;;;;;;;;;;5056763;28;20065;-57
2024/03/03 09:17:27;;;;;;;17.00;12.02;;;;;;;;;;5056876;28;20079;-54
2024/03/03 09:19:53;;;;;;;16.67;12.93;;;;;;;;;;5056894;28;20032;-57
2024/03/03 09:22:23;;;;;;;13.38;11.98;;;;;;;;;;5056925;28;20036;-56
2024/03/03 09:24:49;;;;;;;14.52;12.13;;;;;;;;;;5056529;28;20029;-57
2024/03/03 09:27:17;;;;;;;15.93;12.85;;;;;;;;;;5056525;28;20047;-57
2024/03/03 09:29:43;;;;;;;14.00;11.35;;;;;;;;;;5056804;28;20060;-57
2024/03/03 09:32:09;;;;;;;13.02;11.68;;;;;;;;;;5056219;28;20025;-57
2024/03/03 09:34:35;;;;;;;15.85;12.35;;;;;;;;;;5056642;28;20032;-57
2024/03/03 09:37:01;;;;;;;13.38;10.73;;;;;;;;;;5056225;28;20074;-57
2024/03/03 09:39:27;;;;;;;12.50;10.85;;;;;;;;;;5056366;28;20061;-56
2024/03/03 09:41:57;;;;;;;12.85;11.48;;;;;;;;;;5056233;28;20056;-57
2024/03/03 09:44:24;;;;;;;16.77;11.93;;;;;;;;;;5056036;28;20041;-57
2024/03/03 09:46:51;;;;;;;13.18;11.77;;;;;;;;;;5056137;28;20440;-57
2024/03/03 09:49:18;;;;;;;15.65;11.07;;;;;;;;;;5056982;28;20024;-57
2024/03/03 09:51:48;;;;;;;12.38;9.75;;;;;;;;;;5056043;28;20112;-57
2024/03/03 09:54:14;;;;;;;8.85;7.95;;;;;;;;;;5056596;28;20068;-57
2024/03/03 09:56:44;;;;;;;8.63;7.43;;;;;;;;;;5056571;28;20049;-56
2024/03/03 09:59:10;;;;;;;12.23;9.77;;;;;;;;;;5056427;28;20041;-57
2024/03/03 10:01:39;;;;;;;10.32;8.60;;;;;;;;;;5056676;28;20033;-56
2024/03/03 10:04:05;;;;;;;8.82;7.57;;;;;;;;;;5055763;28;20029;-57
2024/03/03 10:06:33;;;;;;;10.20;8.10;;;;;;;;;;5056324;28;20026;-57
2024/03/03 10:09:00;;;;;;;9.70;6.70;;;;;;;;;;5055747;28;20032;-56
2024/03/03 10:11:26;;;;;;;6.80;6.10;;;;;;;;;;5056554;28;20355;-57
2024/03/03 10:13:53;;;;;;;9.82;6.45;;;;;;;;;;5056029;28;20052;-57
2024/03/03 10:16:19;;;;;;;8.48;6.60;;;;;;;;;;5055682;28;20468;-57
2024/03/03 10:18:58;;;;;;;10.50;8.90;;;;;;;;;;5055876;28;20029;-57
2024/03/03 10:21:25;;;;;;;7.95;7.13;;;;;;;;;;5056160;28;20029;-57
2024/03/03 10:23:51;;;;;;;9.93;7.82;;;;;;;;;;5055121;28;20505;-57
2024/03/03 10:26:16;;;;;;;7.97;7.20;;;;;;;;;;5055205;28;20025;-57
2024/03/03 10:28:43;;;;;;;9.23;7.15;;;;;;;;;;5055612;28;20033;-57
2024/03/03 10:31:12;;;;;;;7.28;6.43;;;;;;;;;;5055275;28;20021;-57
2024/03/03 10:33:52;;;;;;;7.47;6.35;;;;;;;;;;5055277;28;20382;-57
2024/03/03 10:36:20;;;;;;;7.37;5.70;;;;;;;;;;5055330;28;20102;-57
2024/03/03 10:38:49;;;;;;;8.32;6.75;;;;;;;;;;5054629;28;20268;-57
2024/03/03 10:41:15;;;;;;;9.65;6.60;;;;;;;;;;5055454;28;20045;-57
2024/03/03 10:43:41;;;;;;;9.93;6.90;;;;;;;;;;5055544;28;20067;-57
2024/03/03 10:46:07;;;;;;;7.93;6.55;;;;;;;;;;5054806;28;20459;-57
2024/03/03 10:48:33;;;;;;;9.15;7.75;;;;;;;;;;5055133;28;20163;-57
2024/03/03 10:50:59;;;;;;;8.18;6.97;;;;;;;;;;5055744;28;20061;-57
2024/03/03 10:53:26;;;;;;;7.78;6.32;;;;;;;;;;5055195;28;20060;-57
2024/03/03 10:55:53;;;;;;;6.75;5.95;;;;;;;;;;5055055;28;20078;-58
2024/03/03 10:58:21;;;;;;;7.32;5.95;;;;;;;;;;5054810;28;20071;-57
2024/03/03 11:00:47;;;;;;;7.57;5.72;;;;;;;;;;5054767;28;20104;-57
2024/03/03 11:03:14;;;;;;;6.28;5.47;;;;;;;;;;5054630;28;20040;-57
2024/03/03 11:05:42;;;;;;;6.07;5.18;;;;;;;;;;5054347;28;20383;-57
2024/03/03 11:08:11;;;;;;;6.10;4.93;;;;;;;;;;5054921;28;20457;-57
2024/03/03 11:10:37;;;;;;;6.43;4.82;;;;;;;;;;5055092;28;20025;-57
2024/03/03 11:13:04;;;;;;;5.38;4.30;;;;;;;;;;5055019;28;20033;-57
2024/03/03 11:15:35;;;;;;;6.35;4.63;;;;;;;;;;5054442;28;20025;-57
2024/03/03 11:18:03;;;;;;;6.03;3.90;;;;;;;;;;5055094;28;20029;-57
2024/03/03 11:20:36;;;;;;;5.00;3.53;;;;;;;;;;5054791;28;20025;-57
2024/03/03 11:23:21;;;;;;;4.97;3.85;;;;;;;;;;5054352;28;20033;-57
2024/03/03 11:25:59;;;;;;;6.78;3.85;;;;;;;;;;5054228;28;20485;-55
2024/03/03 11:28:28;;;;;;;5.15;4.00;;;;;;;;;;5054078;28;20530;-57
2024/03/03 11:30:54;;;;;;;4.75;4.00;;;;;;;;;;5054196;28;20025;-56
2024/03/03 11:33:21;;;;;;;5.78;3.80;;;;;;;;;;5054621;28;20037;-57
2024/03/03 11:35:47;;;;;;;6.97;4.35;;;;;;;;;;5054658;28;20137;-57
2024/03/03 11:38:13;;;;;;;5.78;4.53;;;;;;;;;;5054725;28;20120;-58
2024/03/03 11:40:43;;;;;;;6.57;4.85;;;;;;;;;;5053966;28;20052;-57
2024/03/03 11:43:10;;;;;;;7.90;5.22;;;;;;;;;;5054421;28;20029;-57
2024/03/03 11:45:47;;;;;;;5.40;4.85;;;;;;;;;;5053889;28;20036;-57
2024/03/03 11:48:13;;;;;;;8.80;6.50;;;;;;;;;;5054333;28;20057;-57
2024/03/03 11:50:40;;;;;;;7.57;6.75;;;;;;;;;;5053786;28;20032;-58
2024/03/03 11:53:06;;;;;;;10.32;8.10;;;;;;;;;;5054063;28;20066;-57
2024/03/03 11:55:33;;;;;;;8.80;7.75;;;;;;;;;;5053366;28;20028;-57
2024/03/03 11:58:01;;;;;;;10.60;8.20;;;;;;;;;;5054638;28;20545;-55
2024/03/03 12:00:27;;;;;;;13.38;9.18;;;;;;;;;;5053698;28;20032;-57
2024/03/03 12:02:54;;;;;;;10.05;8.35;;;;;;;;;;5053447;28;20185;-57
2024/03/03 12:05:23;;;;;;;7.95;7.10;;;;;;;;;;5053447;28;20029;-57
2024/03/03 12:07:52;;;;;;;12.52;8.60;;;;;;;;;;5054257;28;20044;-56
2024/03/03 12:10:22;;;;;;;10.43;8.43;;;;;;;;;;5054500;28;20431;-57
2024/03/03 12:12:49;;;;;;;7.97;7.18;;;;;;;;;;5054249;28;20025;-57
2024/03/03 12:15:19;;;;;;;9.73;7.13;;;;;;;;;;5053725;28;20024;-57
2024/03/03 12:17:48;;;;;;;9.95;7.38;;;;;;;;;;5054010;28;20036;-57
2024/03/03 12:20:15;;;;;;;8.52;6.75;;;;;;;;;;5054484;28;20051;-57
2024/03/03 12:22:40;;;;;;;7.90;6.18;;;;;;;;;;5053466;28;20469;-57
2024/03/03 12:25:07;;;;;;;7.25;6.50;;;;;;;;;;5053357;28;20083;-57
2024/03/03 12:27:33;;;;;;;6.38;5.55;;;;;;;;;;5053420;28;20370;-57
2024/03/03 12:30:09;;;;;;;6.20;5.03;;;;;;;;;;5053969;28;20025;-57
2024/03/03 12:32:39;;;;;;;6.82;5.43;;;;;;;;;;5053684;28;20067;-57
2024/03/03 12:35:06;;;;;;;6.93;6.13;;;;;;;;;;5053328;28;20025;-58
2024/03/03 12:37:32;;;;;;;6.82;5.25;;;;;;;;;;5053363;28;20033;-57
2024/03/03 12:39:58;;;;;;;7.22;5.60;;;;;;;;;;5053502;28;20104;-58
2024/03/03 12:42:24;;;;;;;8.38;5.47;;;;;;;;;;5052823;28;20032;-58
2024/03/03 12:44:50;;;;;;;6.93;5.40;;;;;;;;;;5053683;28;20083;-59
2024/03/03 12:47:16;;;;;;;6.05;4.55;;;;;;;;;;5053327;28;20033;-58
2024/03/03 12:49:43;;;;;;;5.63;4.20;;;;;;;;;;5053899;28;20345;-57
2024/03/03 12:52:09;;;;;;;6.40;3.35;;;;;;;;;;5053339;28;20036;-57
2024/03/03 12:54:35;;;;;;;3.92;2.53;;;;;;;;;;5053279;28;20021;-58
2024/03/03 12:57:07;;;;;;;4.60;3.03;;;;;;;;;;5052964;28;20040;-57
2024/03/03 12:59:33;;;;;;;4.68;3.25;;;;;;;;;;5053517;28;20110;-57
2024/03/03 13:01:59;;;;;;;3.53;2.67;;;;;;;;;;5053231;28;20040;-58
2024/03/03 13:04:29;;;;;;;3.90;2.08;;;;;;;;;;5053590;28;20414;-58
2024/03/03 13:06:56;;;;;;;4.10;2.78;;;;;;;;;;5053521;28;20115;-58
2024/03/03 13:09:25;;;;;;;4.85;4.30;;;;;;;;;;5056930;28;20079;-57
2024/03/03 13:11:51;;;;;;;3.88;2.92;;;;;;;;;;5057324;28;20021;-58
2024/03/03 13:14:17;;;;;;;3.22;1.95;;;;;;;;;;5056506;28;20031;-58
2024/03/03 13:16:43;;;;;;;3.22;2.13;;;;;;;;;;5056776;28;20033;-57
2024/03/03 13:19:10;;;;;;;2.92;1.85;;;;;;;;;;5057181;28;20379;-58
2024/03/03 13:21:36;;;;;;;2.80;1.85;;;;;;;;;;5056625;28;20025;-58
2024/03/03 13:24:17;;;;;;;2.53;1.50;;;;;;;;;;5057046;28;20538;-58
2024/03/03 13:26:43;;;;;;;2.72;1.38;;;;;;;;;;5056917;28;20036;-57
2024/03/03 13:29:10;;;;;;;3.50;1.92;;;;;;;;;;5056633;28;20028;-57
2024/03/03 13:31:36;;;;;;;2.97;1.45;;;;;;;;;;5057317;28;20018;-57
2024/03/03 13:34:02;;;;;;;2.72;1.73;;;;;;;;;;5057078;28;20431;-57
2024/03/03 13:36:28;;;;;;;3.95;1.90;;;;;;;;;;5056346;28;20021;-57
2024/03/03 13:38:54;;;;;;;2.80;1.30;;;;;;;;;;5056883;28;20028;-57
2024/03/03 13:41:20;;;;;;;3.22;1.50;;;;;;;;;;5055883;28;20124;-57
2024/03/03 13:43:46;;;;;;;2.60;1.58;;;;;;;;;;5056215;28;20032;-57
2024/03/03 13:46:12;;;;;;;2.70;1.58;;;;;;;;;;5056139;28;20029;-57
2024/03/03 13:48:38;;;;;;;2.13;1.20;;;;;;;;;;5056612;28;20469;-57
2024/03/03 13:51:04;;;;;;;1.80;1.13;;;;;;;;;;5055799;28;20143;-57
2024/03/03 13:53:30;;;;;;;3.00;1.73;;;;;;;;;;5055921;28;20029;-57
2024/03/03 13:55:56;;;;;;;2.42;1.40;;;;;;;;;;5055648;28;20021;-58
2024/03/03 13:58:22;;;;;;;5.32;3.90;;;;;;;;;;5055854;28;20035;-57
2024/03/03 14:00:51;;;;;;;15.50;11.23;;;;;;;;;;5056676;28;20021;-58
2024/03/03 14:03:17;;;;;;;8.32;6.10;;;;;;;;;;5055732;28;20056;-57
2024/03/03 14:05:43;;;;;;;3.72;2.30;;;;;;;;;;5055427;28;20098;-57
2024/03/03 14:08:09;;;;;;;7.50;5.82;;;;;;;;;;5055887;28;20094;-58
2024/03/03 14:10:35;;;;;;;2.75;2.10;;;;;;;;;;5055886;28;20055;-58
2024/03/03 14:13:01;;;;;;;1.85;1.00;;;;;;;;;;5056031;28;20059;-58
2024/03/03 14:15:29;;;;;;;3.42;2.00;;;;;;;;;;5055482;28;20025;-58
2024/03/03 14:17:55;;;;;;;3.22;2.30;;;;;;;;;;5055430;28;20415;-57
2024/03/03 14:20:22;;;;;;;1.58;0.90;;;;;;;;;;5055415;28;20053;-57
2024/03/03 14:22:50;;;;;;;3.00;2.30;;;;;;;;;;5055356;28;20036;-58